sensor_id;sensor_type;location;lat;lon;timestamp;temperature;humidity
58413;DHT22;44209;52.952;6.790;2023-12-04T00:01:50;0.90;99.90
58413;DHT22;44209;52.952;6.790;2023-12-04T00:04:15;0.90;99.90
58413;DHT22;44209;52.952;6.790;2023-12-04T00:06:41;0.90;99.90
58413;DHT22;44209;52.952;6.790;2023-12-04T00:09:07;0.90;99.90
58413;DHT22;44209;52.952;6.790;2023-12-04T00:11:33;0.80;99.90
58413;DHT22;44209;52.952;6.790;2023-12-04T00:13:59;0.90;99.90
58413;DHT22;44209;52.952;6.790;2023-12-04T00:16:26;0.80;99.90
58413;DHT22;44209;52.952;6.790;2023-12-04T00:18:51;0.80;99.90
58413;DHT22;44209;52.952;6.790;2023-12-04T00:21:17;0.90;99.90
58413;DHT22;44209;52.952;6.790;2023-12-04T00:23:43;0.80;99.90
58413;DHT22;44209;52.952;6.790;2023-12-04T00:26:09;0.80;99.90
58413;DHT22;44209;52.952;6.790;2023-12-04T00:28:38;0.80;99.90
58413;DHT22;44209;52.952;6.790;2023-12-04T00:31:03;0.80;99.90
58413;DHT22;44209;52.952;6.790;2023-12-04T00:33:29;0.80;99.90
58413;DHT22;44209;52.952;6.790;2023-12-04T00:35:56;0.80;99.90
58413;DHT22;44209;52.952;6.790;2023-12-04T00:38:22;0.80;99.90
58413;DHT22;44209;52.952;6.790;2023-12-04T00:40:48;0.80;99.90
58413;DHT22;44209;52.952;6.790;2023-12-04T00:43:13;0.80;99.90
58413;DHT22;44209;52.952;6.790;2023-12-04T00:45:39;0.80;99.90
58413;DHT22;44209;52.952;6.790;2023-12-04T00:48:05;0.80;99.90
58413;DHT22;44209;52.952;6.790;2023-12-04T00:50:31;0.80;99.90
58413;DHT22;44209;52.952;6.790;2023-12-04T00:52:56;0.80;99.90
58413;DHT22;44209;52.952;6.790;2023-12-04T00:55:22;0.80;99.90
58413;DHT22;44209;52.952;6.790;2023-12-04T00:57:48;0.80;99.90
58413;DHT22;44209;52.952;6.790;2023-12-04T01:00:14;0.80;99.90
58413;DHT22;44209;52.952;6.790;2023-12-04T01:02:40;0.80;99.90
58413;DHT22;44209;52.952;6.790;2023-12-04T01:05:06;0.80;99.90
58413;DHT22;44209;52.952;6.790;2023-12-04T01:07:31;0.80;99.90
58413;DHT22;44209;52.952;6.790;2023-12-04T01:09:57;0.90;99.90
58413;DHT22;44209;52.952;6.790;2023-12-04T01:12:23;0.80;99.90
58413;DHT22;44209;52.952;6.790;2023-12-04T01:14:48;0.80;99.90
58413;DHT22;44209;52.952;6.790;2023-12-04T01:17:14;0.80;99.90
58413;DHT22;44209;52.952;6.790;2023-12-04T01:19:40;0.80;99.90
58413;DHT22;44209;52.952;6.790;2023-12-04T01:22:06;0.80;99.90
58413;DHT22;44209;52.952;6.790;2023-12-04T01:24:31;0.80;99.90
58413;DHT22;44209;52.952;6.790;2023-12-04T01:26:57;0.80;99.90
58413;DHT22;44209;52.952;6.790;2023-12-04T01:29:23;0.80;99.90
58413;DHT22;44209;52.952;6.790;2023-12-04T01:31:48;0.80;99.90
58413;DHT22;44209;52.952;6.790;2023-12-04T01:34:14;0.80;99.90
58413;DHT22;44209;52.952;6.790;2023-12-04T01:36:40;0.80;99.90
58413;DHT22;44209;52.952;6.790;2023-12-04T01:39:06;0.80;99.90
58413;DHT22;44209;52.952;6.790;2023-12-04T01:41:32;0.80;99.90
58413;DHT22;44209;52.952;6.790;2023-12-04T01:43:58;0.80;99.90
58413;DHT22;44209;52.952;6.790;2023-12-04T01:46:24;0.80;99.90
58413;DHT22;44209;52.952;6.790;2023-12-04T01:48:49;0.80;99.90
58413;DHT22;44209;52.952;6.790;2023-12-04T01:51:17;0.80;99.90
58413;DHT22;44209;52.952;6.790;2023-12-04T01:53:43;0.80;99.90
58413;DHT22;44209;52.952;6.790;2023-12-04T01:56:10;0.80;99.90
58413;DHT22;44209;52.952;6.790;2023-12-04T01:58:37;0.80;99.90
58413;DHT22;44209;52.952;6.790;2023-12-04T02:01:04;0.80;99.90
58413;DHT22;44209;52.952;6.790;2023-12-04T02:03:30;0.80;99.90
58413;DHT22;44209;52.952;6.790;2023-12-04T02:05:59;0.80;99.90
58413;DHT22;44209;52.952;6.790;2023-12-04T02:08:25;0.80;99.90
58413;DHT22;44209;52.952;6.790;2023-12-04T02:10:51;0.80;99.90
58413;DHT22;44209;52.952;6.790;2023-12-04T02:13:17;0.80;99.90
58413;DHT22;44209;52.952;6.790;2023-12-04T02:15:43;0.70;99.90
58413;DHT22;44209;52.952;6.790;2023-12-04T02:18:09;0.80;99.90
58413;DHT22;44209;52.952;6.790;2023-12-04T02:20:35;0.80;99.90
58413;DHT22;44209;52.952;6.790;2023-12-04T02:23:02;0.80;99.90
58413;DHT22;44209;52.952;6.790;2023-12-04T02:25:31;0.80;99.90
58413;DHT22;44209;52.952;6.790;2023-12-04T02:28:01;0.80;99.90
58413;DHT22;44209;52.952;6.790;2023-12-04T02:30:29;0.80;99.90
58413;DHT22;44209;52.952;6.790;2023-12-04T02:32:57;0.80;99.90
58413;DHT22;44209;52.952;6.790;2023-12-04T02:35:26;0.80;99.90
58413;DHT22;44209;52.952;6.790;2023-12-04T02:37:53;0.80;99.90
58413;DHT22;44209;52.952;6.790;2023-12-04T02:40:19;0.80;99.90
58413;DHT22;44209;52.952;6.790;2023-12-04T02:42:45;0.90;99.90
58413;DHT22;44209;52.952;6.790;2023-12-04T02:45:11;0.90;99.90
58413;DHT22;44209;52.952;6.790;2023-12-04T02:47:37;0.90;99.90
58413;DHT22;44209;52.952;6.790;2023-12-04T02:50:03;0.90;99.90
58413;DHT22;44209;52.952;6.790;2023-12-04T02:52:29;0.90;99.90
58413;DHT22;44209;52.952;6.790;2023-12-04T02:54:54;0.90;99.90
58413;DHT22;44209;52.952;6.790;2023-12-04T02:57:20;0.90;99.90
58413;DHT22;44209;52.952;6.790;2023-12-04T02:59:48;0.90;99.90
58413;DHT22;44209;52.952;6.790;2023-12-04T03:02:13;0.90;99.90
58413;DHT22;44209;52.952;6.790;2023-12-04T03:04:39;0.90;99.90
58413;DHT22;44209;52.952;6.790;2023-12-04T03:07:05;1.00;99.90
58413;DHT22;44209;52.952;6.790;2023-12-04T03:09:30;0.90;99.90
58413;DHT22;44209;52.952;6.790;2023-12-04T03:11:56;1.00;99.90
58413;DHT22;44209;52.952;6.790;2023-12-04T03:14:22;1.00;99.90
58413;DHT22;44209;52.952;6.790;2023-12-04T03:16:47;1.00;99.90
58413;DHT22;44209;52.952;6.790;2023-12-04T03:19:13;1.00;99.90
58413;DHT22;44209;52.952;6.790;2023-12-04T03:21:39;1.00;99.90
58413;DHT22;44209;52.952;6.790;2023-12-04T03:24:04;1.10;99.90
58413;DHT22;44209;52.952;6.790;2023-12-04T03:26:30;1.10;99.90
58413;DHT22;44209;52.952;6.790;2023-12-04T03:28:56;1.00;99.90
58413;DHT22;44209;52.952;6.790;2023-12-04T03:31:22;1.00;99.90
58413;DHT22;44209;52.952;6.790;2023-12-04T03:33:48;1.00;99.90
58413;DHT22;44209;52.952;6.790;2023-12-04T03:36:14;1.00;99.90
58413;DHT22;44209;52.952;6.790;2023-12-04T03:38:39;1.00;99.90
58413;DHT22;44209;52.952;6.790;2023-12-04T03:41:12;1.00;99.90
58413;DHT22;44209;52.952;6.790;2023-12-04T03:43:38;1.00;99.90
58413;DHT22;44209;52.952;6.790;2023-12-04T03:46:04;1.00;99.90
58413;DHT22;44209;52.952;6.790;2023-12-04T03:48:30;1.00;99.90
58413;DHT22;44209;52.952;6.790;2023-12-04T03:50:55;1.00;99.90
58413;DHT22;44209;52.952;6.790;2023-12-04T03:53:21;1.00;99.90
58413;DHT22;44209;52.952;6.790;2023-12-04T03:55:47;1.00;99.90
58413;DHT22;44209;52.952;6.790;2023-12-04T03:58:12;1.00;99.90
58413;DHT22;44209;52.952;6.790;2023-12-04T04:00:38;1.00;99.90
58413;DHT22;44209;52.952;6.790;2023-12-04T04:03:07;1.00;99.90
58413;DHT22;44209;52.952;6.790;2023-12-04T04:05:33;0.90;99.90
58413;DHT22;44209;52.952;6.790;2023-12-04T04:08:00;1.00;99.90
58413;DHT22;44209;52.952;6.790;2023-12-04T04:10:25;1.00;99.90
58413;DHT22;44209;52.952;6.790;2023-12-04T04:12:51;1.00;99.90
58413;DHT22;44209;52.952;6.790;2023-12-04T04:15:17;1.00;99.90
58413;DHT22;44209;52.952;6.790;2023-12-04T04:17:42;1.10;99.90
58413;DHT22;44209;52.952;6.790;2023-12-04T04:20:08;1.10;99.90
58413;DHT22;44209;52.952;6.790;2023-12-04T04:22:35;1.10;99.90
58413;DHT22;44209;52.952;6.790;2023-12-04T04:25:05;1.10;99.90
58413;DHT22;44209;52.952;6.790;2023-12-04T04:27:31;1.10;99.90
58413;DHT22;44209;52.952;6.790;2023-12-04T04:29:57;1.10;99.90
58413;DHT22;44209;52.952;6.790;2023-12-04T04:32:22;1.10;99.90
58413;DHT22;44209;52.952;6.790;2023-12-04T04:34:48;1.10;99.90
58413;DHT22;44209;52.952;6.790;2023-12-04T04:37:14;1.10;99.90
58413;DHT22;44209;52.952;6.790;2023-12-04T04:39:40;1.10;99.90
58413;DHT22;44209;52.952;6.790;2023-12-04T04:42:05;1.00;99.90
58413;DHT22;44209;52.952;6.790;2023-12-04T04:44:31;1.00;99.90
58413;DHT22;44209;52.952;6.790;2023-12-04T04:46:57;1.00;99.90
58413;DHT22;44209;52.952;6.790;2023-12-04T04:49:22;1.00;99.90
58413;DHT22;44209;52.952;6.790;2023-12-04T04:51:48;1.00;99.90
58413;DHT22;44209;52.952;6.790;2023-12-04T04:54:14;1.00;99.90
58413;DHT22;44209;52.952;6.790;2023-12-04T04:56:39;1.00;99.90
58413;DHT22;44209;52.952;6.790;2023-12-04T04:59:05;1.00;99.90
58413;DHT22;44209;52.952;6.790;2023-12-04T05:01:31;1.00;99.90
58413;DHT22;44209;52.952;6.790;2023-12-04T05:03:56;1.00;99.90
58413;DHT22;44209;52.952;6.790;2023-12-04T05:06:22;1.00;99.90
58413;DHT22;44209;52.952;6.790;2023-12-04T05:08:49;1.00;99.90
58413;DHT22;44209;52.952;6.790;2023-12-04T05:11:17;0.90;99.90
58413;DHT22;44209;52.952;6.790;2023-12-04T05:13:44;0.90;99.90
58413;DHT22;44209;52.952;6.790;2023-12-04T05:16:10;1.00;99.90
58413;DHT22;44209;52.952;6.790;2023-12-04T05:18:38;1.00;99.90
58413;DHT22;44209;52.952;6.790;2023-12-04T05:21:07;1.00;99.90
58413;DHT22;44209;52.952;6.790;2023-12-04T05:23:34;1.00;99.90
58413;DHT22;44209;52.952;6.790;2023-12-04T05:25:59;1.00;99.90
58413;DHT22;44209;52.952;6.790;2023-12-04T05:28:25;1.00;99.90
58413;DHT22;44209;52.952;6.790;2023-12-04T05:30:51;1.00;99.90
58413;DHT22;44209;52.952;6.790;2023-12-04T05:33:16;1.00;99.90
58413;DHT22;44209;52.952;6.790;2023-12-04T05:35:42;1.00;99.90
58413;DHT22;44209;52.952;6.790;2023-12-04T05:38:08;0.90;99.90
58413;DHT22;44209;52.952;6.790;2023-12-04T05:40:34;1.00;99.90
58413;DHT22;44209;52.952;6.790;2023-12-04T05:42:59;1.00;99.90
58413;DHT22;44209;52.952;6.790;2023-12-04T05:45:25;1.00;99.90
58413;DHT22;44209;52.952;6.790;2023-12-04T05:47:51;1.00;99.90
58413;DHT22;44209;52.952;6.790;2023-12-04T05:50:18;1.00;99.90
58413;DHT22;44209;52.952;6.790;2023-12-04T05:52:44;1.00;99.90
58413;DHT22;44209;52.952;6.790;2023-12-04T05:55:10;1.00;99.90
58413;DHT22;44209;52.952;6.790;2023-12-04T05:57:38;1.10;99.90
58413;DHT22;44209;52.952;6.790;2023-12-04T06:00:05;1.00;99.90
58413;DHT22;44209;52.952;6.790;2023-12-04T06:02:46;1.10;99.90
58413;DHT22;44209;52.952;6.790;2023-12-04T06:05:12;1.10;99.90
58413;DHT22;44209;52.952;6.790;2023-12-04T06:07:37;1.10;99.90
58413;DHT22;44209;52.952;6.790;2023-12-04T06:10:04;1.20;99.90
58413;DHT22;44209;52.952;6.790;2023-12-04T06:12:30;1.20;99.90
58413;DHT22;44209;52.952;6.790;2023-12-04T06:14:56;1.20;99.90
58413;DHT22;44209;52.952;6.790;2023-12-04T06:17:21;1.20;99.90
58413;DHT22;44209;52.952;6.790;2023-12-04T06:19:47;1.10;99.90
58413;DHT22;44209;52.952;6.790;2023-12-04T06:22:13;1.10;99.90
58413;DHT22;44209;52.952;6.790;2023-12-04T06:24:40;1.20;99.90
58413;DHT22;44209;52.952;6.790;2023-12-04T06:27:06;1.20;99.90
58413;DHT22;44209;52.952;6.790;2023-12-04T06:29:34;1.10;99.90
58413;DHT22;44209;52.952;6.790;2023-12-04T06:32:01;1.10;99.90
58413;DHT22;44209;52.952;6.790;2023-12-04T06:34:27;1.10;99.90
58413;DHT22;44209;52.952;6.790;2023-12-04T06:36:54;1.10;99.90
58413;DHT22;44209;52.952;6.790;2023-12-04T06:39:20;1.10;99.90
58413;DHT22;44209;52.952;6.790;2023-12-04T06:41:46;1.10;99.90
58413;DHT22;44209;52.952;6.790;2023-12-04T06:44:14;1.10;99.90
58413;DHT22;44209;52.952;6.790;2023-12-04T06:46:41;1.10;99.90
58413;DHT22;44209;52.952;6.790;2023-12-04T06:49:09;1.10;99.90
58413;DHT22;44209;52.952;6.790;2023-12-04T06:51:37;1.10;99.90
58413;DHT22;44209;52.952;6.790;2023-12-04T06:54:02;1.00;99.90
58413;DHT22;44209;52.952;6.790;2023-12-04T06:56:28;1.00;99.90
58413;DHT22;44209;52.952;6.790;2023-12-04T06:58:54;1.00;99.90
58413;DHT22;44209;52.952;6.790;2023-12-04T07:01:20;1.10;99.90
58413;DHT22;44209;52.952;6.790;2023-12-04T07:03:47;1.00;99.90
58413;DHT22;44209;52.952;6.790;2023-12-04T07:06:13;1.00;99.90
58413;DHT22;44209;52.952;6.790;2023-12-04T07:08:40;1.00;99.90
58413;DHT22;44209;52.952;6.790;2023-12-04T07:11:06;1.00;99.90
58413;DHT22;44209;52.952;6.790;2023-12-04T07:13:34;1.10;99.90
58413;DHT22;44209;52.952;6.790;2023-12-04T07:15:59;1.00;99.90
58413;DHT22;44209;52.952;6.790;2023-12-04T07:18:25;1.00;99.90
58413;DHT22;44209;52.952;6.790;2023-12-04T07:20:51;1.00;99.90
58413;DHT22;44209;52.952;6.790;2023-12-04T07:23:17;1.00;99.90
58413;DHT22;44209;52.952;6.790;2023-12-04T07:25:43;1.00;99.90
58413;DHT22;44209;52.952;6.790;2023-12-04T07:28:08;1.00;99.90
58413;DHT22;44209;52.952;6.790;2023-12-04T07:30:34;1.10;99.90
58413;DHT22;44209;52.952;6.790;2023-12-04T07:33:00;1.00;99.90
58413;DHT22;44209;52.952;6.790;2023-12-04T07:35:26;1.00;99.90
58413;DHT22;44209;52.952;6.790;2023-12-04T07:37:52;1.10;99.90
58413;DHT22;44209;52.952;6.790;2023-12-04T07:40:18;1.10;99.90
58413;DHT22;44209;52.952;6.790;2023-12-04T07:42:43;1.10;99.90
58413;DHT22;44209;52.952;6.790;2023-12-04T07:45:10;1.10;99.90
58413;DHT22;44209;52.952;6.790;2023-12-04T07:47:36;1.10;99.90
58413;DHT22;44209;52.952;6.790;2023-12-04T07:50:02;1.10;99.90
58413;DHT22;44209;52.952;6.790;2023-12-04T07:52:27;1.10;99.90
58413;DHT22;44209;52.952;6.790;2023-12-04T07:54:53;1.10;99.90
58413;DHT22;44209;52.952;6.790;2023-12-04T07:57:19;1.10;99.90
58413;DHT22;44209;52.952;6.790;2023-12-04T07:59:45;1.00;99.90
58413;DHT22;44209;52.952;6.790;2023-12-04T08:02:10;1.10;99.90
58413;DHT22;44209;52.952;6.790;2023-12-04T08:04:36;1.10;99.90
58413;DHT22;44209;52.952;6.790;2023-12-04T08:07:02;1.10;99.90
58413;DHT22;44209;52.952;6.790;2023-12-04T08:09:27;1.10;99.90
58413;DHT22;44209;52.952;6.790;2023-12-04T08:11:53;1.20;99.90
58413;DHT22;44209;52.952;6.790;2023-12-04T08:14:19;1.20;99.90
58413;DHT22;44209;52.952;6.790;2023-12-04T08:16:44;1.20;99.90
58413;DHT22;44209;52.952;6.790;2023-12-04T08:19:10;1.20;99.90
58413;DHT22;44209;52.952;6.790;2023-12-04T08:21:36;1.20;99.90
58413;DHT22;44209;52.952;6.790;2023-12-04T08:24:02;1.20;99.90
58413;DHT22;44209;52.952;6.790;2023-12-04T08:26:27;1.30;99.90
58413;DHT22;44209;52.952;6.790;2023-12-04T08:28:53;1.30;99.90
58413;DHT22;44209;52.952;6.790;2023-12-04T08:31:19;1.30;99.90
58413;DHT22;44209;52.952;6.790;2023-12-04T08:33:44;1.30;99.90
58413;DHT22;44209;52.952;6.790;2023-12-04T08:36:13;1.30;99.90
58413;DHT22;44209;52.952;6.790;2023-12-04T08:38:39;1.30;99.90
58413;DHT22;44209;52.952;6.790;2023-12-04T08:41:05;1.30;99.90
58413;DHT22;44209;52.952;6.790;2023-12-04T08:43:30;1.30;99.90
58413;DHT22;44209;52.952;6.790;2023-12-04T08:45:56;1.30;99.90
58413;DHT22;44209;52.952;6.790;2023-12-04T08:48:22;1.30;99.90
58413;DHT22;44209;52.952;6.790;2023-12-04T08:50:48;1.30;99.90
58413;DHT22;44209;52.952;6.790;2023-12-04T08:53:14;1.30;99.90
58413;DHT22;44209;52.952;6.790;2023-12-04T08:55:39;1.30;99.90
58413;DHT22;44209;52.952;6.790;2023-12-04T08:58:08;1.40;99.90
58413;DHT22;44209;52.952;6.790;2023-12-04T09:00:36;1.30;99.90
58413;DHT22;44209;52.952;6.790;2023-12-04T09:03:03;1.30;99.90
58413;DHT22;44209;52.952;6.790;2023-12-04T09:05:29;1.40;99.90
58413;DHT22;44209;52.952;6.790;2023-12-04T09:07:54;1.40;99.90
58413;DHT22;44209;52.952;6.790;2023-12-04T09:10:20;1.40;99.90
58413;DHT22;44209;52.952;6.790;2023-12-04T09:12:45;1.40;99.90
58413;DHT22;44209;52.952;6.790;2023-12-04T09:15:11;1.40;99.90
58413;DHT22;44209;52.952;6.790;2023-12-04T09:17:37;1.40;99.90
58413;DHT22;44209;52.952;6.790;2023-12-04T09:20:03;1.50;99.90
58413;DHT22;44209;52.952;6.790;2023-12-04T09:22:31;1.50;99.90
58413;DHT22;44209;52.952;6.790;2023-12-04T09:24:57;1.50;99.90
58413;DHT22;44209;52.952;6.790;2023-12-04T09:27:22;1.50;99.90
58413;DHT22;44209;52.952;6.790;2023-12-04T09:29:48;1.50;99.90
58413;DHT22;44209;52.952;6.790;2023-12-04T09:32:14;1.50;99.90
58413;DHT22;44209;52.952;6.790;2023-12-04T09:34:39;1.60;99.90
58413;DHT22;44209;52.952;6.790;2023-12-04T09:37:05;1.60;99.90
58413;DHT22;44209;52.952;6.790;2023-12-04T09:39:31;1.70;99.90
58413;DHT22;44209;52.952;6.790;2023-12-04T09:41:57;1.70;99.90
58413;DHT22;44209;52.952;6.790;2023-12-04T09:44:24;1.70;99.90
58413;DHT22;44209;52.952;6.790;2023-12-04T09:46:51;1.70;99.90
58413;DHT22;44209;52.952;6.790;2023-12-04T09:49:17;1.70;99.90
58413;DHT22;44209;52.952;6.790;2023-12-04T09:51:44;1.80;99.90
58413;DHT22;44209;52.952;6.790;2023-12-04T09:54:10;1.80;99.90
58413;DHT22;44209;52.952;6.790;2023-12-04T09:56:37;1.80;99.90
58413;DHT22;44209;52.952;6.790;2023-12-04T09:59:05;1.80;99.90
58413;DHT22;44209;52.952;6.790;2023-12-04T10:01:32;1.80;99.90
58413;DHT22;44209;52.952;6.790;2023-12-04T10:03:58;1.90;99.90
58413;DHT22;44209;52.952;6.790;2023-12-04T10:06:27;1.90;99.90
58413;DHT22;44209;52.952;6.790;2023-12-04T10:08:55;1.90;99.90
58413;DHT22;44209;52.952;6.790;2023-12-04T10:11:24;1.90;99.90
58413;DHT22;44209;52.952;6.790;2023-12-04T10:13:50;2.00;99.90
58413;DHT22;44209;52.952;6.790;2023-12-04T10:16:36;2.00;99.90
58413;DHT22;44209;52.952;6.790;2023-12-04T10:19:23;2.00;99.90
58413;DHT22;44209;52.952;6.790;2023-12-04T10:21:52;2.00;99.90
58413;DHT22;44209;52.952;6.790;2023-12-04T10:24:35;2.10;99.90
58413;DHT22;44209;52.952;6.790;2023-12-04T10:27:05;2.10;99.90
58413;DHT22;44209;52.952;6.790;2023-12-04T10:29:47;2.10;99.90
58413;DHT22;44209;52.952;6.790;2023-12-04T10:32:13;2.10;99.90
58413;DHT22;44209;52.952;6.790;2023-12-04T10:34:41;2.20;99.90
58413;DHT22;44209;52.952;6.790;2023-12-04T10:37:09;2.20;99.90
58413;DHT22;44209;52.952;6.790;2023-12-04T10:39:49;2.10;99.90
58413;DHT22;44209;52.952;6.790;2023-12-04T10:42:29;2.10;99.90
58413;DHT22;44209;52.952;6.790;2023-12-04T10:44:58;2.20;99.90
58413;DHT22;44209;52.952;6.790;2023-12-04T10:47:25;2.20;99.90
58413;DHT22;44209;52.952;6.790;2023-12-04T10:49:51;2.20;99.90
58413;DHT22;44209;52.952;6.790;2023-12-04T10:52:18;2.20;99.90
58413;DHT22;44209;52.952;6.790;2023-12-04T10:54:47;2.30;99.90
58413;DHT22;44209;52.952;6.790;2023-12-04T10:57:19;2.30;99.90
58413;DHT22;44209;52.952;6.790;2023-12-04T10:59:47;2.30;99.90
58413;DHT22;44209;52.952;6.790;2023-12-04T11:02:19;2.20;99.90
58413;DHT22;44209;52.952;6.790;2023-12-04T11:04:49;2.30;99.90
58413;DHT22;44209;52.952;6.790;2023-12-04T11:07:17;2.30;99.90
58413;DHT22;44209;52.952;6.790;2023-12-04T11:09:44;2.30;99.90
58413;DHT22;44209;52.952;6.790;2023-12-04T11:12:14;2.30;99.90
58413;DHT22;44209;52.952;6.790;2023-12-04T11:14:46;2.30;99.90
58413;DHT22;44209;52.952;6.790;2023-12-04T11:17:16;2.30;99.90
58413;DHT22;44209;52.952;6.790;2023-12-04T11:20:07;2.30;99.90
58413;DHT22;44209;52.952;6.790;2023-12-04T11:22:35;2.30;99.90
58413;DHT22;44209;52.952;6.790;2023-12-04T11:25:06;2.30;99.90
58413;DHT22;44209;52.952;6.790;2023-12-04T11:27:34;2.30;99.90
58413;DHT22;44209;52.952;6.790;2023-12-04T11:30:01;2.30;99.90
58413;DHT22;44209;52.952;6.790;2023-12-04T11:32:29;2.30;99.90
58413;DHT22;44209;52.952;6.790;2023-12-04T11:34:55;2.30;99.90
58413;DHT22;44209;52.952;6.790;2023-12-04T11:37:22;2.40;99.90
58413;DHT22;44209;52.952;6.790;2023-12-04T11:39:53;2.40;99.90
58413;DHT22;44209;52.952;6.790;2023-12-04T11:42:21;2.40;99.90
58413;DHT22;44209;52.952;6.790;2023-12-04T11:44:49;2.40;99.90
58413;DHT22;44209;52.952;6.790;2023-12-04T11:47:15;2.40;99.90
58413;DHT22;44209;52.952;6.790;2023-12-04T11:49:41;2.40;99.90
58413;DHT22;44209;52.952;6.790;2023-12-04T11:52:07;2.40;99.90
58413;DHT22;44209;52.952;6.790;2023-12-04T11:57:26;2.50;99.90
58413;DHT22;44209;52.952;6.790;2023-12-04T12:05:22;2.60;99.90
58413;DHT22;44209;52.952;6.790;2023-12-04T12:07:48;2.60;99.90
58413;DHT22;44209;52.952;6.790;2023-12-04T12:10:15;2.60;99.90
58413;DHT22;44209;52.952;6.790;2023-12-04T12:12:45;2.60;99.90
58413;DHT22;44209;52.952;6.790;2023-12-04T12:15:12;2.60;99.90
58413;DHT22;44209;52.952;6.790;2023-12-04T12:17:39;2.60;99.90
58413;DHT22;44209;52.952;6.790;2023-12-04T12:20:10;2.60;99.90
58413;DHT22;44209;52.952;6.790;2023-12-04T12:22:37;2.60;99.90
58413;DHT22;44209;52.952;6.790;2023-12-04T12:25:08;2.60;99.90
58413;DHT22;44209;52.952;6.790;2023-12-04T12:27:34;2.70;99.90
58413;DHT22;44209;52.952;6.790;2023-12-04T12:30:00;2.70;99.90
58413;DHT22;44209;52.952;6.790;2023-12-04T12:32:27;2.70;99.90
58413;DHT22;44209;52.952;6.790;2023-12-04T12:34:55;2.70;99.90
58413;DHT22;44209;52.952;6.790;2023-12-04T12:37:21;2.80;99.90
58413;DHT22;44209;52.952;6.790;2023-12-04T12:39:47;2.80;99.90
58413;DHT22;44209;52.952;6.790;2023-12-04T12:42:21;2.80;99.90
58413;DHT22;44209;52.952;6.790;2023-12-04T12:44:48;2.90;99.90
58413;DHT22;44209;52.952;6.790;2023-12-04T12:47:17;2.80;99.90
58413;DHT22;44209;52.952;6.790;2023-12-04T12:49:43;2.80;99.90
58413;DHT22;44209;52.952;6.790;2023-12-04T12:52:09;2.80;99.90
58413;DHT22;44209;52.952;6.790;2023-12-04T12:54:41;2.80;99.90
58413;DHT22;44209;52.952;6.790;2023-12-04T12:57:07;2.80;99.90
58413;DHT22;44209;52.952;6.790;2023-12-04T12:59:33;2.80;99.90
58413;DHT22;44209;52.952;6.790;2023-12-04T13:02:00;2.70;99.90
58413;DHT22;44209;52.952;6.790;2023-12-04T13:04:26;2.70;99.90
58413;DHT22;44209;52.952;6.790;2023-12-04T13:06:58;2.70;99.90
58413;DHT22;44209;52.952;6.790;2023-12-04T13:09:24;2.70;99.90
58413;DHT22;44209;52.952;6.790;2023-12-04T13:11:50;2.70;99.90
58413;DHT22;44209;52.952;6.790;2023-12-04T13:14:17;2.70;99.90
58413;DHT22;44209;52.952;6.790;2023-12-04T13:16:43;2.70;99.90
58413;DHT22;44209;52.952;6.790;2023-12-04T13:19:08;2.70;99.90
58413;DHT22;44209;52.952;6.790;2023-12-04T13:21:34;2.70;99.90
58413;DHT22;44209;52.952;6.790;2023-12-04T13:24:00;2.70;99.90
58413;DHT22;44209;52.952;6.790;2023-12-04T13:26:26;2.70;99.90
58413;DHT22;44209;52.952;6.790;2023-12-04T13:28:51;2.70;99.90
58413;DHT22;44209;52.952;6.790;2023-12-04T13:31:17;2.70;99.90
58413;DHT22;44209;52.952;6.790;2023-12-04T13:33:43;2.70;99.90
58413;DHT22;44209;52.952;6.790;2023-12-04T13:36:11;2.70;99.90
58413;DHT22;44209;52.952;6.790;2023-12-04T13:38:37;2.70;99.90
58413;DHT22;44209;52.952;6.790;2023-12-04T13:41:03;2.60;99.90
58413;DHT22;44209;52.952;6.790;2023-12-04T13:43:55;2.60;99.90
58413;DHT22;44209;52.952;6.790;2023-12-04T13:46:21;2.60;99.90
58413;DHT22;44209;52.952;6.790;2023-12-04T13:48:47;2.60;99.90
58413;DHT22;44209;52.952;6.790;2023-12-04T13:51:13;2.60;99.90
58413;DHT22;44209;52.952;6.790;2023-12-04T13:53:40;2.50;99.90
58413;DHT22;44209;52.952;6.790;2023-12-04T13:56:13;2.50;99.90
58413;DHT22;44209;52.952;6.790;2023-12-04T13:58:57;2.60;99.90
58413;DHT22;44209;52.952;6.790;2023-12-04T14:01:27;2.60;99.90
58413;DHT22;44209;52.952;6.790;2023-12-04T14:03:56;2.50;99.90
58413;DHT22;44209;52.952;6.790;2023-12-04T14:06:30;2.50;99.90
58413;DHT22;44209;52.952;6.790;2023-12-04T14:08:56;2.50;99.90
58413;DHT22;44209;52.952;6.790;2023-12-04T14:11:23;2.50;99.90
58413;DHT22;44209;52.952;6.790;2023-12-04T14:13:49;2.50;99.90
58413;DHT22;44209;52.952;6.790;2023-12-04T14:16:15;2.50;99.90
58413;DHT22;44209;52.952;6.790;2023-12-04T14:18:41;2.50;99.90
58413;DHT22;44209;52.952;6.790;2023-12-04T14:21:10;2.40;99.90
58413;DHT22;44209;52.952;6.790;2023-12-04T14:23:36;2.40;99.90
58413;DHT22;44209;52.952;6.790;2023-12-04T14:26:02;2.40;99.90
58413;DHT22;44209;52.952;6.790;2023-12-04T14:28:28;2.40;99.90
58413;DHT22;44209;52.952;6.790;2023-12-04T14:30:54;2.30;99.90
58413;DHT22;44209;52.952;6.790;2023-12-04T14:33:20;2.30;99.90
58413;DHT22;44209;52.952;6.790;2023-12-04T14:35:46;2.30;99.90
58413;DHT22;44209;52.952;6.790;2023-12-04T14:38:12;2.30;99.90
58413;DHT22;44209;52.952;6.790;2023-12-04T14:40:38;2.20;99.90
58413;DHT22;44209;52.952;6.790;2023-12-04T14:43:04;2.30;99.90
58413;DHT22;44209;52.952;6.790;2023-12-04T14:45:35;2.20;99.90
58413;DHT22;44209;52.952;6.790;2023-12-04T14:48:02;2.20;99.90
58413;DHT22;44209;52.952;6.790;2023-12-04T14:50:27;2.20;99.90
58413;DHT22;44209;52.952;6.790;2023-12-04T14:52:53;2.20;99.90
58413;DHT22;44209;52.952;6.790;2023-12-04T14:55:21;2.20;99.90
58413;DHT22;44209;52.952;6.790;2023-12-04T14:57:52;2.20;99.90
58413;DHT22;44209;52.952;6.790;2023-12-04T15:00:27;2.10;99.90
58413;DHT22;44209;52.952;6.790;2023-12-04T15:03:11;2.10;99.90
58413;DHT22;44209;52.952;6.790;2023-12-04T15:05:49;2.10;99.90
58413;DHT22;44209;52.952;6.790;2023-12-04T15:08:32;2.10;99.90
58413;DHT22;44209;52.952;6.790;2023-12-04T15:11:07;2.10;99.90
58413;DHT22;44209;52.952;6.790;2023-12-04T15:13:47;2.10;99.90
58413;DHT22;44209;52.952;6.790;2023-12-04T15:16:19;2.10;99.90
58413;DHT22;44209;52.952;6.790;2023-12-04T15:19:03;2.00;99.90
58413;DHT22;44209;52.952;6.790;2023-12-04T15:21:38;2.00;99.90
58413;DHT22;44209;52.952;6.790;2023-12-04T15:24:05;2.00;99.90
58413;DHT22;44209;52.952;6.790;2023-12-04T15:26:32;2.00;99.90
58413;DHT22;44209;52.952;6.790;2023-12-04T15:28:58;2.00;99.90
58413;DHT22;44209;52.952;6.790;2023-12-04T15:31:24;2.00;99.90
58413;DHT22;44209;52.952;6.790;2023-12-04T15:33:49;2.00;99.90
58413;DHT22;44209;52.952;6.790;2023-12-04T15:36:15;2.00;99.90
58413;DHT22;44209;52.952;6.790;2023-12-04T15:38:41;2.00;99.90
58413;DHT22;44209;52.952;6.790;2023-12-04T15:41:06;2.00;99.90
58413;DHT22;44209;52.952;6.790;2023-12-04T15:43:34;2.00;99.90
58413;DHT22;44209;52.952;6.790;2023-12-04T15:46:00;2.00;99.90
58413;DHT22;44209;52.952;6.790;2023-12-04T15:48:26;1.90;99.90
58413;DHT22;44209;52.952;6.790;2023-12-04T15:50:51;1.90;99.90
58413;DHT22;44209;52.952;6.790;2023-12-04T15:53:17;1.90;99.90